sensor_id;sensor_type;location;lat;lon;timestamp;P1;durP1;ratioP1;P2;durP2;ratioP2
9115;SDS011;4593;53.652;10.168;2023-03-14T00:01:23;7.20;;;2.73;;
9115;SDS011;4593;53.652;10.168;2023-03-14T00:03:49;3.80;;;2.33;;
9115;SDS011;4593;53.652;10.168;2023-03-14T00:06:15;2.90;;;2.33;;
9115;SDS011;4593;53.652;10.168;2023-03-14T00:08:42;3.53;;;2.30;;
9115;SDS011;4593;53.652;10.168;2023-03-14T00:11:10;5.80;;;2.80;;
9115;SDS011;4593;53.652;10.168;2023-03-14T00:13:37;3.73;;;2.50;;
9115;SDS011;4593;53.652;10.168;2023-03-14T00:16:04;3.73;;;2.63;;
9115;SDS011;4593;53.652;10.168;2023-03-14T00:18:31;6.00;;;3.17;;
9115;SDS011;4593;53.652;10.168;2023-03-14T00:21:01;5.10;;;3.17;;
9115;SDS011;4593;53.652;10.168;2023-03-14T00:23:28;10.20;;;2.63;;
9115;SDS011;4593;53.652;10.168;2023-03-14T00:25:58;7.03;;;2.83;;
9115;SDS011;4593;53.652;10.168;2023-03-14T00:28:28;5.57;;;3.17;;
9115;SDS011;4593;53.652;10.168;2023-03-14T00:30:54;8.33;;;2.70;;
9115;SDS011;4593;53.652;10.168;2023-03-14T00:33:20;3.10;;;2.80;;
9115;SDS011;4593;53.652;10.168;2023-03-14T00:35:56;3.77;;;2.90;;
9115;SDS011;4593;53.652;10.168;2023-03-14T00:38:23;5.80;;;2.83;;
9115;SDS011;4593;53.652;10.168;2023-03-14T00:40:50;6.97;;;2.67;;
9115;SDS011;4593;53.652;10.168;2023-03-14T00:43:17;5.27;;;2.70;;
9115;SDS011;4593;53.652;10.168;2023-03-14T00:45:43;6.10;;;2.83;;
9115;SDS011;4593;53.652;10.168;2023-03-14T00:48:09;4.27;;;2.67;;
9115;SDS011;4593;53.652;10.168;2023-03-14T00:50:35;6.60;;;2.97;;
9115;SDS011;4593;53.652;10.168;2023-03-14T00:53:01;5.30;;;2.73;;
9115;SDS011;4593;53.652;10.168;2023-03-14T00:55:26;7.43;;;2.83;;
9115;SDS011;4593;53.652;10.168;2023-03-14T00:57:52;7.83;;;2.47;;
9115;SDS011;4593;53.652;10.168;2023-03-14T01:00:17;13.03;;;3.10;;
9115;SDS011;4593;53.652;10.168;2023-03-14T01:02:43;3.73;;;2.80;;
9115;SDS011;4593;53.652;10.168;2023-03-14T01:05:09;5.37;;;2.70;;
9115;SDS011;4593;53.652;10.168;2023-03-14T01:07:37;6.67;;;2.60;;
9115;SDS011;4593;53.652;10.168;2023-03-14T01:10:04;8.00;;;2.47;;
9115;SDS011;4593;53.652;10.168;2023-03-14T01:12:30;7.67;;;2.77;;
9115;SDS011;4593;53.652;10.168;2023-03-14T01:14:56;4.00;;;2.67;;
9115;SDS011;4593;53.652;10.168;2023-03-14T01:17:22;3.50;;;2.37;;
9115;SDS011;4593;53.652;10.168;2023-03-14T01:19:48;4.27;;;2.83;;
9115;SDS011;4593;53.652;10.168;2023-03-14T01:22:14;9.60;;;2.40;;
9115;SDS011;4593;53.652;10.168;2023-03-14T01:24:39;11.70;;;3.10;;
9115;SDS011;4593;53.652;10.168;2023-03-14T01:27:05;4.07;;;2.73;;
9115;SDS011;4593;53.652;10.168;2023-03-14T01:29:31;5.20;;;2.70;;
9115;SDS011;4593;53.652;10.168;2023-03-14T01:31:57;4.10;;;2.70;;
9115;SDS011;4593;53.652;10.168;2023-03-14T01:34:22;9.07;;;3.03;;
9115;SDS011;4593;53.652;10.168;2023-03-14T01:36:48;6.40;;;2.60;;
9115;SDS011;4593;53.652;10.168;2023-03-14T01:39:14;3.17;;;2.60;;
9115;SDS011;4593;53.652;10.168;2023-03-14T01:41:40;7.87;;;3.30;;
9115;SDS011;4593;53.652;10.168;2023-03-14T01:44:08;7.53;;;3.07;;
9115;SDS011;4593;53.652;10.168;2023-03-14T01:51:53;5.10;;;2.47;;
9115;SDS011;4593;53.652;10.168;2023-03-14T01:57:29;4.77;;;2.97;;
9115;SDS011;4593;53.652;10.168;2023-03-14T02:00:05;8.93;;;2.40;;
9115;SDS011;4593;53.652;10.168;2023-03-14T02:02:46;4.90;;;2.83;;
9115;SDS011;4593;53.652;10.168;2023-03-14T02:05:16;3.13;;;2.60;;
9115;SDS011;4593;53.652;10.168;2023-03-14T02:10:14;4.13;;;2.70;;
9115;SDS011;4593;53.652;10.168;2023-03-14T02:12:43;2.90;;;2.60;;
9115;SDS011;4593;53.652;10.168;2023-03-14T02:15:11;3.13;;;2.80;;
9115;SDS011;4593;53.652;10.168;2023-03-14T02:17:36;5.17;;;2.93;;
9115;SDS011;4593;53.652;10.168;2023-03-14T02:22:47;2.90;;;2.60;;
9115;SDS011;4593;53.652;10.168;2023-03-14T02:27:42;4.93;;;2.93;;
9115;SDS011;4593;53.652;10.168;2023-03-14T02:33:30;2.93;;;2.63;;
9115;SDS011;4593;53.652;10.168;2023-03-14T02:35:59;4.20;;;2.67;;
9115;SDS011;4593;53.652;10.168;2023-03-14T02:38:47;7.50;;;2.40;;
9115;SDS011;4593;53.652;10.168;2023-03-14T02:41:20;3.13;;;2.53;;
9115;SDS011;4593;53.652;10.168;2023-03-14T02:43:45;5.57;;;2.67;;
9115;SDS011;4593;53.652;10.168;2023-03-14T02:46:12;3.23;;;2.33;;
9115;SDS011;4593;53.652;10.168;2023-03-14T02:48:41;6.27;;;2.87;;
9115;SDS011;4593;53.652;10.168;2023-03-14T02:51:11;2.93;;;2.57;;
9115;SDS011;4593;53.652;10.168;2023-03-14T02:53:38;2.93;;;2.63;;
9115;SDS011;4593;53.652;10.168;2023-03-14T02:56:06;3.87;;;2.70;;
9115;SDS011;4593;53.652;10.168;2023-03-14T02:58:32;5.00;;;3.07;;
9115;SDS011;4593;53.652;10.168;2023-03-14T03:00:58;3.37;;;2.73;;
9115;SDS011;4593;53.652;10.168;2023-03-14T03:03:24;6.17;;;3.00;;
9115;SDS011;4593;53.652;10.168;2023-03-14T03:05:50;9.23;;;2.83;;
9115;SDS011;4593;53.652;10.168;2023-03-14T03:08:18;5.70;;;2.63;;
9115;SDS011;4593;53.652;10.168;2023-03-14T03:10:45;6.90;;;2.80;;
9115;SDS011;4593;53.652;10.168;2023-03-14T03:13:11;3.57;;;2.60;;
9115;SDS011;4593;53.652;10.168;2023-03-14T03:15:37;5.33;;;3.03;;
9115;SDS011;4593;53.652;10.168;2023-03-14T03:18:02;4.33;;;2.93;;
9115;SDS011;4593;53.652;10.168;2023-03-14T03:20:28;4.73;;;2.90;;
9115;SDS011;4593;53.652;10.168;2023-03-14T03:22:54;4.83;;;2.90;;
9115;SDS011;4593;53.652;10.168;2023-03-14T03:25:20;8.27;;;2.93;;
9115;SDS011;4593;53.652;10.168;2023-03-14T03:27:45;3.33;;;2.40;;
9115;SDS011;4593;53.652;10.168;2023-03-14T03:30:11;3.40;;;2.50;;
9115;SDS011;4593;53.652;10.168;2023-03-14T03:32:37;6.67;;;3.10;;
9115;SDS011;4593;53.652;10.168;2023-03-14T03:35:03;4.37;;;3.03;;
9115;SDS011;4593;53.652;10.168;2023-03-14T03:37:30;3.57;;;3.10;;
9115;SDS011;4593;53.652;10.168;2023-03-14T03:39:56;6.03;;;2.83;;
9115;SDS011;4593;53.652;10.168;2023-03-14T03:42:22;9.30;;;2.70;;
9115;SDS011;4593;53.652;10.168;2023-03-14T03:44:48;4.13;;;2.97;;
9115;SDS011;4593;53.652;10.168;2023-03-14T03:47:14;2.70;;;2.50;;
9115;SDS011;4593;53.652;10.168;2023-03-14T03:49:40;7.07;;;2.90;;
9115;SDS011;4593;53.652;10.168;2023-03-14T03:52:06;11.27;;;3.40;;
9115;SDS011;4593;53.652;10.168;2023-03-14T03:54:31;5.77;;;3.17;;
9115;SDS011;4593;53.652;10.168;2023-03-14T03:56:57;3.57;;;2.83;;
9115;SDS011;4593;53.652;10.168;2023-03-14T03:59:23;5.10;;;2.93;;
9115;SDS011;4593;53.652;10.168;2023-03-14T04:01:48;5.43;;;3.40;;
9115;SDS011;4593;53.652;10.168;2023-03-14T04:04:14;3.90;;;2.70;;
9115;SDS011;4593;53.652;10.168;2023-03-14T04:06:40;3.47;;;2.83;;
9115;SDS011;4593;53.652;10.168;2023-03-14T04:09:07;7.27;;;3.47;;
9115;SDS011;4593;53.652;10.168;2023-03-14T04:11:33;6.20;;;3.10;;
9115;SDS011;4593;53.652;10.168;2023-03-14T04:13:59;7.03;;;3.67;;
9115;SDS011;4593;53.652;10.168;2023-03-14T04:16:25;4.50;;;2.70;;
9115;SDS011;4593;53.652;10.168;2023-03-14T04:18:51;3.27;;;2.97;;
9115;SDS011;4593;53.652;10.168;2023-03-14T04:21:17;4.67;;;3.03;;
9115;SDS011;4593;53.652;10.168;2023-03-14T04:23:43;5.20;;;2.77;;
9115;SDS011;4593;53.652;10.168;2023-03-14T04:26:09;7.00;;;3.30;;
9115;SDS011;4593;53.652;10.168;2023-03-14T04:28:35;3.27;;;2.73;;
9115;SDS011;4593;53.652;10.168;2023-03-14T04:31:17;6.50;;;3.30;;
9115;SDS011;4593;53.652;10.168;2023-03-14T04:33:45;3.37;;;2.83;;
9115;SDS011;4593;53.652;10.168;2023-03-14T04:36:11;3.73;;;2.70;;
9115;SDS011;4593;53.652;10.168;2023-03-14T04:38:37;6.03;;;3.40;;
9115;SDS011;4593;53.652;10.168;2023-03-14T04:41:03;7.50;;;2.87;;
9115;SDS011;4593;53.652;10.168;2023-03-14T04:43:34;4.37;;;3.20;;
9115;SDS011;4593;53.652;10.168;2023-03-14T04:46:00;6.37;;;2.93;;
9115;SDS011;4593;53.652;10.168;2023-03-14T04:48:26;3.50;;;3.20;;
9115;SDS011;4593;53.652;10.168;2023-03-14T04:50:52;4.57;;;3.00;;
9115;SDS011;4593;53.652;10.168;2023-03-14T04:53:18;5.97;;;3.67;;
9115;SDS011;4593;53.652;10.168;2023-03-14T04:55:54;8.33;;;3.30;;
9115;SDS011;4593;53.652;10.168;2023-03-14T04:58:20;3.87;;;3.20;;
9115;SDS011;4593;53.652;10.168;2023-03-14T05:00:46;6.20;;;3.30;;
9115;SDS011;4593;53.652;10.168;2023-03-14T05:03:14;6.60;;;3.67;;
9115;SDS011;4593;53.652;10.168;2023-03-14T05:05:40;7.07;;;3.07;;
9115;SDS011;4593;53.652;10.168;2023-03-14T05:08:06;8.73;;;3.23;;
9115;SDS011;4593;53.652;10.168;2023-03-14T05:10:32;7.40;;;3.30;;
9115;SDS011;4593;53.652;10.168;2023-03-14T05:12:58;5.03;;;3.23;;
9115;SDS011;4593;53.652;10.168;2023-03-14T05:15:23;4.93;;;3.10;;
9115;SDS011;4593;53.652;10.168;2023-03-14T05:17:49;3.33;;;2.80;;
9115;SDS011;4593;53.652;10.168;2023-03-14T05:20:15;3.37;;;2.00;;
9115;SDS011;4593;53.652;10.168;2023-03-14T05:22:41;2.13;;;2.00;;
9115;SDS011;4593;53.652;10.168;2023-03-14T05:25:07;3.43;;;2.50;;
9115;SDS011;4593;53.652;10.168;2023-03-14T05:27:34;2.63;;;2.47;;
9115;SDS011;4593;53.652;10.168;2023-03-14T05:30:00;3.60;;;2.13;;
9115;SDS011;4593;53.652;10.168;2023-03-14T05:32:27;2.40;;;2.20;;
9115;SDS011;4593;53.652;10.168;2023-03-14T05:34:53;2.93;;;2.23;;
9115;SDS011;4593;53.652;10.168;2023-03-14T05:37:23;2.53;;;2.33;;
9115;SDS011;4593;53.652;10.168;2023-03-14T05:39:48;4.27;;;2.27;;
9115;SDS011;4593;53.652;10.168;2023-03-14T05:42:14;6.23;;;2.67;;
9115;SDS011;4593;53.652;10.168;2023-03-14T05:44:40;3.60;;;2.30;;
9115;SDS011;4593;53.652;10.168;2023-03-14T05:47:05;2.53;;;2.33;;
9115;SDS011;4593;53.652;10.168;2023-03-14T05:49:31;2.30;;;2.10;;
9115;SDS011;4593;53.652;10.168;2023-03-14T05:51:57;3.40;;;2.43;;
9115;SDS011;4593;53.652;10.168;2023-03-14T05:54:22;3.03;;;2.37;;
9115;SDS011;4593;53.652;10.168;2023-03-14T05:56:48;4.53;;;2.50;;
9115;SDS011;4593;53.652;10.168;2023-03-14T05:59:14;3.53;;;2.63;;
9115;SDS011;4593;53.652;10.168;2023-03-14T06:01:40;4.67;;;2.77;;
9115;SDS011;4593;53.652;10.168;2023-03-14T06:04:05;2.90;;;2.70;;
9115;SDS011;4593;53.652;10.168;2023-03-14T06:06:31;4.20;;;2.93;;
9115;SDS011;4593;53.652;10.168;2023-03-14T06:08:56;3.07;;;2.73;;
9115;SDS011;4593;53.652;10.168;2023-03-14T06:11:22;2.80;;;2.60;;
9115;SDS011;4593;53.652;10.168;2023-03-14T06:13:48;2.90;;;2.70;;
9115;SDS011;4593;53.652;10.168;2023-03-14T06:16:13;3.03;;;2.67;;
9115;SDS011;4593;53.652;10.168;2023-03-14T06:18:39;4.60;;;3.13;;
9115;SDS011;4593;53.652;10.168;2023-03-14T06:21:05;6.10;;;3.30;;
9115;SDS011;4593;53.652;10.168;2023-03-14T06:23:31;4.03;;;3.37;;
9115;SDS011;4593;53.652;10.168;2023-03-14T06:25:57;4.43;;;3.57;;
9115;SDS011;4593;53.652;10.168;2023-03-14T06:28:22;4.00;;;3.50;;
9115;SDS011;4593;53.652;10.168;2023-03-14T06:30:48;5.43;;;3.80;;
9115;SDS011;4593;53.652;10.168;2023-03-14T06:33:14;7.50;;;4.23;;
9115;SDS011;4593;53.652;10.168;2023-03-14T06:35:39;5.43;;;3.97;;
9115;SDS011;4593;53.652;10.168;2023-03-14T06:38:05;6.47;;;4.53;;
9115;SDS011;4593;53.652;10.168;2023-03-14T06:40:30;5.23;;;3.70;;
9115;SDS011;4593;53.652;10.168;2023-03-14T06:42:56;6.07;;;3.80;;
9115;SDS011;4593;53.652;10.168;2023-03-14T06:45:22;4.37;;;3.93;;
9115;SDS011;4593;53.652;10.168;2023-03-14T06:47:48;9.50;;;4.10;;
9115;SDS011;4593;53.652;10.168;2023-03-14T06:50:14;6.17;;;4.10;;
9115;SDS011;4593;53.652;10.168;2023-03-14T06:52:39;6.50;;;3.70;;
9115;SDS011;4593;53.652;10.168;2023-03-14T06:55:11;5.20;;;3.83;;
9115;SDS011;4593;53.652;10.168;2023-03-14T06:57:36;10.70;;;3.93;;
9115;SDS011;4593;53.652;10.168;2023-03-14T07:00:03;4.10;;;3.70;;
9115;SDS011;4593;53.652;10.168;2023-03-14T07:02:29;5.83;;;3.83;;
9115;SDS011;4593;53.652;10.168;2023-03-14T07:04:55;4.30;;;3.67;;
9115;SDS011;4593;53.652;10.168;2023-03-14T07:07:21;10.70;;;4.33;;
9115;SDS011;4593;53.652;10.168;2023-03-14T07:09:46;9.30;;;3.70;;
9115;SDS011;4593;53.652;10.168;2023-03-14T07:12:12;8.93;;;4.03;;
9115;SDS011;4593;53.652;10.168;2023-03-14T07:14:38;8.80;;;3.93;;
9115;SDS011;4593;53.652;10.168;2023-03-14T07:17:03;3.50;;;2.93;;
9115;SDS011;4593;53.652;10.168;2023-03-14T07:19:29;4.17;;;3.50;;
9115;SDS011;4593;53.652;10.168;2023-03-14T07:21:55;6.73;;;4.07;;
9115;SDS011;4593;53.652;10.168;2023-03-14T07:24:21;10.73;;;3.70;;
9115;SDS011;4593;53.652;10.168;2023-03-14T07:26:46;6.47;;;3.57;;
9115;SDS011;4593;53.652;10.168;2023-03-14T07:29:12;7.00;;;3.37;;
9115;SDS011;4593;53.652;10.168;2023-03-14T07:31:37;10.17;;;3.23;;
9115;SDS011;4593;53.652;10.168;2023-03-14T07:34:03;9.03;;;3.27;;
9115;SDS011;4593;53.652;10.168;2023-03-14T07:36:29;3.07;;;2.60;;
9115;SDS011;4593;53.652;10.168;2023-03-14T07:38:54;4.93;;;2.53;;
9115;SDS011;4593;53.652;10.168;2023-03-14T07:41:21;3.97;;;2.73;;
9115;SDS011;4593;53.652;10.168;2023-03-14T07:43:48;4.70;;;2.70;;
9115;SDS011;4593;53.652;10.168;2023-03-14T07:46:14;6.93;;;2.67;;
9115;SDS011;4593;53.652;10.168;2023-03-14T07:48:40;2.60;;;2.37;;
9115;SDS011;4593;53.652;10.168;2023-03-14T07:51:05;3.60;;;2.50;;
9115;SDS011;4593;53.652;10.168;2023-03-14T07:53:31;5.20;;;2.80;;
9115;SDS011;4593;53.652;10.168;2023-03-14T07:55:57;4.73;;;2.30;;
9115;SDS011;4593;53.652;10.168;2023-03-14T07:58:23;4.83;;;2.90;;
9115;SDS011;4593;53.652;10.168;2023-03-14T08:00:49;4.83;;;2.90;;
9115;SDS011;4593;53.652;10.168;2023-03-14T08:03:15;3.37;;;2.60;;
9115;SDS011;4593;53.652;10.168;2023-03-14T08:05:41;2.90;;;2.30;;
9115;SDS011;4593;53.652;10.168;2023-03-14T08:08:07;3.60;;;2.70;;
9115;SDS011;4593;53.652;10.168;2023-03-14T08:10:33;4.30;;;2.63;;
9115;SDS011;4593;53.652;10.168;2023-03-14T08:12:59;4.50;;;2.27;;
9115;SDS011;4593;53.652;10.168;2023-03-14T08:15:26;2.83;;;2.20;;
9115;SDS011;4593;53.652;10.168;2023-03-14T08:17:53;2.87;;;2.57;;
9115;SDS011;4593;53.652;10.168;2023-03-14T08:20:22;10.83;;;2.80;;
9115;SDS011;4593;53.652;10.168;2023-03-14T08:22:50;4.07;;;2.20;;
9115;SDS011;4593;53.652;10.168;2023-03-14T08:25:16;2.87;;;2.40;;
9115;SDS011;4593;53.652;10.168;2023-03-14T08:27:42;2.67;;;2.47;;
9115;SDS011;4593;53.652;10.168;2023-03-14T08:30:09;2.93;;;2.33;;
9115;SDS011;4593;53.652;10.168;2023-03-14T08:32:36;3.83;;;2.03;;
9115;SDS011;4593;53.652;10.168;2023-03-14T08:35:03;4.80;;;2.30;;
9115;SDS011;4593;53.652;10.168;2023-03-14T08:37:30;2.70;;;2.00;;
9115;SDS011;4593;53.652;10.168;2023-03-14T08:39:57;12.20;;;3.70;;
9115;SDS011;4593;53.652;10.168;2023-03-14T08:42:23;2.90;;;2.50;;
9115;SDS011;4593;53.652;10.168;2023-03-14T08:44:49;9.17;;;3.00;;
9115;SDS011;4593;53.652;10.168;2023-03-14T08:47:16;2.50;;;2.00;;
9115;SDS011;4593;53.652;10.168;2023-03-14T08:49:42;2.47;;;2.27;;
9115;SDS011;4593;53.652;10.168;2023-03-14T08:52:07;2.80;;;2.43;;
9115;SDS011;4593;53.652;10.168;2023-03-14T08:54:33;2.50;;;2.30;;
9115;SDS011;4593;53.652;10.168;2023-03-14T08:56:59;4.23;;;2.50;;
9115;SDS011;4593;53.652;10.168;2023-03-14T08:59:24;4.33;;;2.60;;
9115;SDS011;4593;53.652;10.168;2023-03-14T09:01:50;6.37;;;2.73;;
9115;SDS011;4593;53.652;10.168;2023-03-14T09:04:16;4.63;;;2.63;;
9115;SDS011;4593;53.652;10.168;2023-03-14T09:06:42;4.00;;;2.77;;
9115;SDS011;4593;53.652;10.168;2023-03-14T09:09:08;5.23;;;2.87;;
9115;SDS011;4593;53.652;10.168;2023-03-14T09:11:33;7.47;;;3.23;;
9115;SDS011;4593;53.652;10.168;2023-03-14T09:13:59;4.23;;;2.70;;
9115;SDS011;4593;53.652;10.168;2023-03-14T09:16:25;7.73;;;2.43;;
9115;SDS011;4593;53.652;10.168;2023-03-14T09:18:51;3.40;;;2.60;;
9115;SDS011;4593;53.652;10.168;2023-03-14T09:21:19;7.20;;;3.17;;
9115;SDS011;4593;53.652;10.168;2023-03-14T09:23:46;3.70;;;2.83;;
9115;SDS011;4593;53.652;10.168;2023-03-14T09:26:12;3.47;;;2.97;;
9115;SDS011;4593;53.652;10.168;2023-03-14T09:28:37;3.50;;;3.00;;
9115;SDS011;4593;53.652;10.168;2023-03-14T09:31:07;3.67;;;3.27;;
9115;SDS011;4593;53.652;10.168;2023-03-14T09:33:34;6.70;;;2.90;;
9115;SDS011;4593;53.652;10.168;2023-03-14T09:36:00;8.80;;;2.90;;
9115;SDS011;4593;53.652;10.168;2023-03-14T09:38:27;4.40;;;2.80;;
9115;SDS011;4593;53.652;10.168;2023-03-14T09:40:53;5.37;;;3.63;;
9115;SDS011;4593;53.652;10.168;2023-03-14T09:43:20;7.43;;;2.80;;
9115;SDS011;4593;53.652;10.168;2023-03-14T09:45:47;4.73;;;3.17;;
9115;SDS011;4593;53.652;10.168;2023-03-14T09:48:24;5.73;;;3.17;;
9115;SDS011;4593;53.652;10.168;2023-03-14T09:50:56;5.47;;;3.33;;
9115;SDS011;4593;53.652;10.168;2023-03-14T09:53:28;6.30;;;3.53;;
9115;SDS011;4593;53.652;10.168;2023-03-14T09:56:04;4.27;;;3.53;;
9115;SDS011;4593;53.652;10.168;2023-03-14T09:58:36;4.20;;;3.30;;
9115;SDS011;4593;53.652;10.168;2023-03-14T10:01:07;4.63;;;3.23;;
9115;SDS011;4593;53.652;10.168;2023-03-14T10:03:38;2.63;;;2.03;;
9115;SDS011;4593;53.652;10.168;2023-03-14T10:06:12;3.73;;;1.97;;
9115;SDS011;4593;53.652;10.168;2023-03-14T10:08:39;1.60;;;1.50;;
9115;SDS011;4593;53.652;10.168;2023-03-14T10:11:09;1.60;;;1.50;;
9115;SDS011;4593;53.652;10.168;2023-03-14T10:13:46;3.40;;;2.10;;
9115;SDS011;4593;53.652;10.168;2023-03-14T10:16:33;1.90;;;1.80;;
9115;SDS011;4593;53.652;10.168;2023-03-14T10:19:01;1.70;;;1.60;;
9115;SDS011;4593;53.652;10.168;2023-03-14T10:21:29;3.10;;;1.70;;
9115;SDS011;4593;53.652;10.168;2023-03-14T10:24:18;1.93;;;1.83;;
9115;SDS011;4593;53.652;10.168;2023-03-14T10:26:52;1.90;;;1.80;;
9115;SDS011;4593;53.652;10.168;2023-03-14T10:29:50;1.87;;;1.77;;
9115;SDS011;4593;53.652;10.168;2023-03-14T10:32:21;1.70;;;1.60;;
9115;SDS011;4593;53.652;10.168;2023-03-14T10:37:33;1.60;;;1.50;;
9115;SDS011;4593;53.652;10.168;2023-03-14T10:40:00;4.17;;;1.90;;
9115;SDS011;4593;53.652;10.168;2023-03-14T10:42:31;1.70;;;1.60;;
9115;SDS011;4593;53.652;10.168;2023-03-14T10:45:47;1.77;;;1.67;;
9115;SDS011;4593;53.652;10.168;2023-03-14T10:48:05;1.90;;;1.80;;
9115;SDS011;4593;53.652;10.168;2023-03-14T10:50:57;1.70;;;1.60;;
9115;SDS011;4593;53.652;10.168;2023-03-14T10:53:32;1.90;;;1.80;;
9115;SDS011;4593;53.652;10.168;2023-03-14T10:56:16;6.70;;;1.90;;
9115;SDS011;4593;53.652;10.168;2023-03-14T10:58:47;1.67;;;1.57;;
9115;SDS011;4593;53.652;10.168;2023-03-14T11:03:51;1.60;;;1.50;;
9115;SDS011;4593;53.652;10.168;2023-03-14T11:14:48;1.70;;;1.60;;
9115;SDS011;4593;53.652;10.168;2023-03-14T11:17:27;2.00;;;1.80;;
9115;SDS011;4593;53.652;10.168;2023-03-14T11:28:23;1.60;;;1.50;;
9115;SDS011;4593;53.652;10.168;2023-03-14T11:31:10;3.33;;;1.87;;
9115;SDS011;4593;53.652;10.168;2023-03-14T11:34:36;1.93;;;1.77;;
9115;SDS011;4593;53.652;10.168;2023-03-14T11:36:53;1.80;;;1.70;;
9115;SDS011;4593;53.652;10.168;2023-03-14T11:39:26;2.03;;;1.80;;
9115;SDS011;4593;53.652;10.168;2023-03-14T11:42:16;1.70;;;1.60;;
9115;SDS011;4593;53.652;10.168;2023-03-14T11:44:46;1.70;;;1.60;;
9115;SDS011;4593;53.652;10.168;2023-03-14T11:53:04;1.83;;;1.73;;
9115;SDS011;4593;53.652;10.168;2023-03-14T11:55:54;1.90;;;1.80;;
9115;SDS011;4593;53.652;10.168;2023-03-14T11:58:27;1.70;;;1.60;;
9115;SDS011;4593;53.652;10.168;2023-03-14T12:00:56;2.47;;;1.73;;
9115;SDS011;4593;53.652;10.168;2023-03-14T12:06:02;2.00;;;1.70;;
9115;SDS011;4593;53.652;10.168;2023-03-14T12:11:12;1.90;;;1.80;;
9115;SDS011;4593;53.652;10.168;2023-03-14T12:13:57;5.87;;;2.20;;
9115;SDS011;4593;53.652;10.168;2023-03-14T12:18:49;2.07;;;1.90;;
9115;SDS011;4593;53.652;10.168;2023-03-14T12:21:18;4.70;;;2.00;;
9115;SDS011;4593;53.652;10.168;2023-03-14T12:23:56;1.90;;;1.80;;
9115;SDS011;4593;53.652;10.168;2023-03-14T12:26:24;2.80;;;2.00;;
9115;SDS011;4593;53.652;10.168;2023-03-14T12:34:02;2.57;;;2.03;;
9115;SDS011;4593;53.652;10.168;2023-03-14T12:42:01;2.33;;;1.83;;
9115;SDS011;4593;53.652;10.168;2023-03-14T12:44:51;7.87;;;2.40;;
9115;SDS011;4593;53.652;10.168;2023-03-14T12:49:46;5.70;;;1.77;;
9115;SDS011;4593;53.652;10.168;2023-03-14T13:06:08;2.67;;;1.80;;
9115;SDS011;4593;53.652;10.168;2023-03-14T13:08:39;7.47;;;2.33;;
9115;SDS011;4593;53.652;10.168;2023-03-14T13:11:09;6.03;;;2.07;;
9115;SDS011;4593;53.652;10.168;2023-03-14T13:13:35;2.53;;;2.30;;
9115;SDS011;4593;53.652;10.168;2023-03-14T13:16:09;3.83;;;2.40;;
9115;SDS011;4593;53.652;10.168;2023-03-14T13:18:42;2.93;;;1.87;;
9115;SDS011;4593;53.652;10.168;2023-03-14T13:21:29;8.80;;;3.00;;
9115;SDS011;4593;53.652;10.168;2023-03-14T13:26:34;10.53;;;2.37;;
9115;SDS011;4593;53.652;10.168;2023-03-14T13:31:51;3.67;;;2.73;;
9115;SDS011;4593;53.652;10.168;2023-03-14T13:34:19;4.30;;;2.30;;
9115;SDS011;4593;53.652;10.168;2023-03-14T13:36:45;6.40;;;2.67;;
9115;SDS011;4593;53.652;10.168;2023-03-14T13:39:17;4.07;;;2.07;;
9115;SDS011;4593;53.652;10.168;2023-03-14T13:41:44;6.87;;;2.37;;
9115;SDS011;4593;53.652;10.168;2023-03-14T13:46:59;4.63;;;2.07;;
9115;SDS011;4593;53.652;10.168;2023-03-14T13:49:26;2.67;;;1.97;;
9115;SDS011;4593;53.652;10.168;2023-03-14T13:51:54;7.57;;;2.37;;
9115;SDS011;4593;53.652;10.168;2023-03-14T13:54:21;3.67;;;2.30;;
9115;SDS011;4593;53.652;10.168;2023-03-14T13:56:47;3.90;;;2.00;;
9115;SDS011;4593;53.652;10.168;2023-03-14T14:01:49;3.30;;;2.17;;
9115;SDS011;4593;53.652;10.168;2023-03-14T14:04:16;3.93;;;2.23;;
9115;SDS011;4593;53.652;10.168;2023-03-14T14:06:45;2.00;;;1.90;;
9115;SDS011;4593;53.652;10.168;2023-03-14T14:09:16;3.93;;;2.03;;
9115;SDS011;4593;53.652;10.168;2023-03-14T14:11:49;2.00;;;1.90;;
9115;SDS011;4593;53.652;10.168;2023-03-14T14:14:28;3.43;;;2.50;;
9115;SDS011;4593;53.652;10.168;2023-03-14T14:16:58;2.63;;;2.30;;
9115;SDS011;4593;53.652;10.168;2023-03-14T14:19:25;2.20;;;2.00;;
9115;SDS011;4593;53.652;10.168;2023-03-14T14:21:54;2.50;;;2.30;;
9115;SDS011;4593;53.652;10.168;2023-03-14T14:24:20;2.33;;;2.10;;
9115;SDS011;4593;53.652;10.168;2023-03-14T14:26:53;2.33;;;1.70;;
9115;SDS011;4593;53.652;10.168;2023-03-14T14:29:27;7.53;;;2.10;;
9115;SDS011;4593;53.652;10.168;2023-03-14T14:34:39;6.63;;;2.23;;
9115;SDS011;4593;53.652;10.168;2023-03-14T14:37:14;11.27;;;2.30;;
9115;SDS011;4593;53.652;10.168;2023-03-14T14:39:45;10.33;;;2.77;;
9115;SDS011;4593;53.652;10.168;2023-03-14T14:42:15;6.80;;;2.20;;
9115;SDS011;4593;53.652;10.168;2023-03-14T14:44:42;2.83;;;2.13;;
9115;SDS011;4593;53.652;10.168;2023-03-14T14:47:12;5.10;;;2.53;;
9115;SDS011;4593;53.652;10.168;2023-03-14T14:49:40;6.03;;;2.67;;
9115;SDS011;4593;53.652;10.168;2023-03-14T14:52:10;6.10;;;2.67;;
9115;SDS011;4593;53.652;10.168;2023-03-14T14:54:42;7.73;;;2.60;;
9115;SDS011;4593;53.652;10.168;2023-03-14T14:59:48;8.23;;;2.60;;
9115;SDS011;4593;53.652;10.168;2023-03-14T15:02:27;4.37;;;2.67;;
9115;SDS011;4593;53.652;10.168;2023-03-14T15:05:00;4.80;;;2.30;;
9115;SDS011;4593;53.652;10.168;2023-03-14T15:07:26;3.60;;;1.70;;
9115;SDS011;4593;53.652;10.168;2023-03-14T15:09:52;3.50;;;2.10;;
9115;SDS011;4593;53.652;10.168;2023-03-14T15:12:17;12.43;;;2.70;;
9115;SDS011;4593;53.652;10.168;2023-03-14T15:14:45;12.40;;;2.73;;
9115;SDS011;4593;53.652;10.168;2023-03-14T15:17:10;15.10;;;2.20;;
9115;SDS011;4593;53.652;10.168;2023-03-14T15:19:37;1.93;;;1.80;;
9115;SDS011;4593;53.652;10.168;2023-03-14T15:22:04;4.30;;;2.50;;
9115;SDS011;4593;53.652;10.168;2023-03-14T15:24:34;2.27;;;2.03;;
9115;SDS011;4593;53.652;10.168;2023-03-14T15:26:59;7.53;;;2.57;;
9115;SDS011;4593;53.652;10.168;2023-03-14T15:29:25;6.43;;;2.30;;
9115;SDS011;4593;53.652;10.168;2023-03-14T15:31:51;7.90;;;2.37;;
9115;SDS011;4593;53.652;10.168;2023-03-14T15:34:17;7.60;;;2.23;;
9115;SDS011;4593;53.652;10.168;2023-03-14T15:36:42;7.63;;;2.30;;
9115;SDS011;4593;53.652;10.168;2023-03-14T15:39:09;13.87;;;2.73;;
9115;SDS011;4593;53.652;10.168;2023-03-14T15:41:36;4.70;;;2.80;;
9115;SDS011;4593;53.652;10.168;2023-03-14T15:44:01;4.57;;;2.97;;
9115;SDS011;4593;53.652;10.168;2023-03-14T15:46:27;4.33;;;2.60;;
9115;SDS011;4593;53.652;10.168;2023-03-14T15:48:53;2.63;;;2.43;;
9115;SDS011;4593;53.652;10.168;2023-03-14T15:51:18;3.30;;;2.13;;
9115;SDS011;4593;53.652;10.168;2023-03-14T15:53:44;2.40;;;2.20;;
9115;SDS011;4593;53.652;10.168;2023-03-14T15:56:11;5.37;;;2.53;;
9115;SDS011;4593;53.652;10.168;2023-03-14T15:58:39;6.30;;;2.67;;
9115;SDS011;4593;53.652;10.168;2023-03-14T16:01:06;2.17;;;2.00;;
9115;SDS011;4593;53.652;10.168;2023-03-14T16:03:36;7.00;;;2.30;;
9115;SDS011;4593;53.652;10.168;2023-03-14T16:06:02;4.63;;;2.33;;
9115;SDS011;4593;53.652;10.168;2023-03-14T16:08:28;3.57;;;2.10;;
9115;SDS011;4593;53.652;10.168;2023-03-14T16:10:54;12.60;;;2.20;;
9115;SDS011;4593;53.652;10.168;2023-03-14T16:13:22;3.27;;;2.07;;
9115;SDS011;4593;53.652;10.168;2023-03-14T16:15:58;4.80;;;2.20;;
9115;SDS011;4593;53.652;10.168;2023-03-14T16:18:26;2.33;;;1.80;;
9115;SDS011;4593;53.652;10.168;2023-03-14T16:21:04;7.57;;;2.00;;
9115;SDS011;4593;53.652;10.168;2023-03-14T16:23:31;5.33;;;1.90;;
9115;SDS011;4593;53.652;10.168;2023-03-14T16:25:57;15.53;;;2.37;;
9115;SDS011;4593;53.652;10.168;2023-03-14T16:28:24;2.50;;;1.93;;
9115;SDS011;4593;53.652;10.168;2023-03-14T16:30:50;4.43;;;2.33;;
9115;SDS011;4593;53.652;10.168;2023-03-14T16:33:17;2.93;;;2.00;;
9115;SDS011;4593;53.652;10.168;2023-03-14T16:35:53;7.33;;;2.37;;
9115;SDS011;4593;53.652;10.168;2023-03-14T16:38:20;9.43;;;2.77;;
9115;SDS011;4593;53.652;10.168;2023-03-14T16:40:54;7.43;;;2.37;;
9115;SDS011;4593;53.652;10.168;2023-03-14T16:43:21;5.47;;;2.80;;
9115;SDS011;4593;53.652;10.168;2023-03-14T16:45:48;7.37;;;2.73;;